Karl Stefan Memorial Airport
KOFK : now visible

Airfield :











YOU CAN JOIN US ON...

 
LOGIN :

Register | Disclaimer

   EN    FR    IT 

 









Legend :    VFR   Marginal VFR   IFR   Intensive IFR   Very Intensive IFR
Visi :
Ceiling :
>= 8 km
>= 3000ft
5 to 8 km
1000 to 3000 ft
1500m to 5 km
500 to 1000 ft
800 to 1500m
200 to 500 ft
< 800m
< 200 ft
Symbols :   Thunderstorms  Fog  Heavy snow  Heavy precipitations  Wind > 20 kt







- Airport Elevation : 1573 ft


KOFK - Karl Stefan Memorial

CURRENT METAR :
  • 211256Z AUTO 30008KT 8SM -RA BKN110 21/19 A3007 RMK AO2 SLP170 P0004 T02110194

EXPIRED METARs :
  • 211156Z AUTO 08007KT 7SM -RA FEW049 FEW075 OVC100 21/20 A3007 RMK AO2 LTG DSNT E TSB1057E12 SLP169 P0014 60033 70036 T02060200 10239 20206 58005
  • 211137Z AUTO 04013G17KT 4SM RA BR SCT003 BKN070 OVC110 21/20 A3006 RMK AO2 TSB1057E12 P0009 T02110200
  • 211124Z AUTO 06008KT 5SM -RA BR BKN003 BKN080 OVC120 21/20 A3007 RMK AO2 LTG DSNT NW TSB1057E12 P0005 T02110200
  • 211058Z AUTO 03005KT 3SM +TSRA BR SCT009 BKN065 OVC080 21/20 A3008 RMK AO2 LTG DSNT ALQDS TSB57 P0001 T02110200
  • 211048Z AUTO 17004KT 3SM +TSRA BR BKN010 BKN029 OVC065 21/20 A3009 RMK AO2 LTG DSNT ALQDS TSB34 P0012 T02110200
  • 211041Z AUTO 14010KT 5SM TSRA BR BKN008 BKN029 OVC095 21/20 A3010 RMK AO2 LTG DSNT ALQDS TSB34 P0008 T02110200

TAF KOFK
Valid from the 21 at 13:00 until the 22 at 12:00 UTC


211242Z 2113/2212 08008KT 6SM -SHRA OVC100
TEMPO 2114/2117 5SM -SHRA OVC025
FM212000 02009KT P6SM BKN070
FM220100 06006KT P6SM SCT090
No reported NOTAMs for that airfield.



MET'MAP, your aeronautical weather chart ! - Copyright ORBIFLY December 2007 - Disclaimer

ORBIFLY MET'MAP TEAM :

Programming & Development : Alexandra Zaïnal
Concept & Development : Baudouin d'Aumeries
Co-Development & Prog : Marc-Olivier Méhu
Technical & hardware support : Manuel Goepfert

Contact : metmap@orbifly.com




SOURCES & CREDITS :

   NOAA       Earth
Advisory